sensor_id;sensor_type;location;lat;lon;timestamp;P1;durP1;ratioP1;P2;durP2;ratioP2
23720;SDS011;42950;52.134;5.578;2023-05-19T00:01:40;11.35;;;4.80;;
23720;SDS011;42950;52.134;5.578;2023-05-19T00:04:08;8.50;;;4.05;;
23720;SDS011;42950;52.134;5.578;2023-05-19T00:06:36;15.80;;;4.70;;
23720;SDS011;42950;52.134;5.578;2023-05-19T00:09:11;7.75;;;4.00;;
23720;SDS011;42950;52.134;5.578;2023-05-19T00:11:38;14.77;;;4.43;;
23720;SDS011;42950;52.134;5.578;2023-05-19T00:14:05;7.38;;;4.50;;
23720;SDS011;42950;52.134;5.578;2023-05-19T00:16:32;10.85;;;4.70;;
23720;SDS011;42950;52.134;5.578;2023-05-19T00:18:59;11.23;;;4.85;;
23720;SDS011;42950;52.134;5.578;2023-05-19T00:21:27;9.23;;;4.28;;
23720;SDS011;42950;52.134;5.578;2023-05-19T00:23:53;11.98;;;4.57;;
23720;SDS011;42950;52.134;5.578;2023-05-19T00:26:19;9.88;;;4.70;;
23720;SDS011;42950;52.134;5.578;2023-05-19T00:28:50;9.18;;;4.45;;
23720;SDS011;42950;52.134;5.578;2023-05-19T00:31:16;10.23;;;4.78;;
23720;SDS011;42950;52.134;5.578;2023-05-19T00:33:42;8.73;;;4.10;;
23720;SDS011;42950;52.134;5.578;2023-05-19T00:36:08;14.27;;;4.78;;
23720;SDS011;42950;52.134;5.578;2023-05-19T00:38:34;9.25;;;4.47;;
23720;SDS011;42950;52.134;5.578;2023-05-19T00:41:02;10.40;;;4.50;;
23720;SDS011;42950;52.134;5.578;2023-05-19T00:43:29;12.10;;;4.53;;
23720;SDS011;42950;52.134;5.578;2023-05-19T00:45:56;11.75;;;4.90;;
23720;SDS011;42950;52.134;5.578;2023-05-19T00:48:23;8.20;;;4.57;;
23720;SDS011;42950;52.134;5.578;2023-05-19T00:50:49;9.43;;;4.57;;
23720;SDS011;42950;52.134;5.578;2023-05-19T00:53:17;7.97;;;4.47;;
23720;SDS011;42950;52.134;5.578;2023-05-19T00:55:43;11.38;;;5.00;;
23720;SDS011;42950;52.134;5.578;2023-05-19T00:58:10;12.02;;;4.80;;
23720;SDS011;42950;52.134;5.578;2023-05-19T01:00:37;9.55;;;5.55;;
23720;SDS011;42950;52.134;5.578;2023-05-19T01:03:04;13.52;;;4.90;;
23720;SDS011;42950;52.134;5.578;2023-05-19T01:05:36;8.77;;;4.55;;
23720;SDS011;42950;52.134;5.578;2023-05-19T01:08:06;11.27;;;5.10;;
23720;SDS011;42950;52.134;5.578;2023-05-19T01:10:32;10.73;;;4.78;;
23720;SDS011;42950;52.134;5.578;2023-05-19T01:12:58;13.35;;;5.03;;
23720;SDS011;42950;52.134;5.578;2023-05-19T01:15:25;9.70;;;4.93;;
23720;SDS011;42950;52.134;5.578;2023-05-19T01:17:55;10.10;;;5.00;;
23720;SDS011;42950;52.134;5.578;2023-05-19T01:28:47;13.52;;;5.60;;
23720;SDS011;42950;52.134;5.578;2023-05-19T01:31:27;12.40;;;5.13;;
23720;SDS011;42950;52.134;5.578;2023-05-19T01:33:53;11.20;;;5.40;;
23720;SDS011;42950;52.134;5.578;2023-05-19T01:36:21;12.85;;;5.22;;
23720;SDS011;42950;52.134;5.578;2023-05-19T01:38:51;12.68;;;5.38;;
23720;SDS011;42950;52.134;5.578;2023-05-19T01:41:20;12.23;;;5.57;;
23720;SDS011;42950;52.134;5.578;2023-05-19T01:43:47;9.95;;;5.88;;
23720;SDS011;42950;52.134;5.578;2023-05-19T01:46:14;11.45;;;5.20;;
23720;SDS011;42950;52.134;5.578;2023-05-19T01:48:42;11.35;;;5.47;;
23720;SDS011;42950;52.134;5.578;2023-05-19T01:51:08;11.57;;;5.03;;
23720;SDS011;42950;52.134;5.578;2023-05-19T01:53:34;10.88;;;5.35;;
23720;SDS011;42950;52.134;5.578;2023-05-19T01:56:00;11.18;;;6.13;;
23720;SDS011;42950;52.134;5.578;2023-05-19T02:01:10;11.65;;;5.30;;
23720;SDS011;42950;52.134;5.578;2023-05-19T02:09:31;13.27;;;6.13;;
23720;SDS011;42950;52.134;5.578;2023-05-19T02:17:54;12.55;;;6.60;;
23720;SDS011;42950;52.134;5.578;2023-05-19T02:20:24;11.63;;;5.78;;
23720;SDS011;42950;52.134;5.578;2023-05-19T02:22:50;8.70;;;5.97;;
23720;SDS011;42950;52.134;5.578;2023-05-19T02:25:15;17.00;;;7.03;;
23720;SDS011;42950;52.134;5.578;2023-05-19T02:27:41;13.23;;;6.82;;
23720;SDS011;42950;52.134;5.578;2023-05-19T02:30:07;16.60;;;6.90;;
23720;SDS011;42950;52.134;5.578;2023-05-19T02:32:33;12.02;;;6.32;;
23720;SDS011;42950;52.134;5.578;2023-05-19T02:35:01;14.50;;;6.78;;
23720;SDS011;42950;52.134;5.578;2023-05-19T02:37:28;16.38;;;6.22;;
23720;SDS011;42950;52.134;5.578;2023-05-19T02:39:53;16.95;;;7.20;;
23720;SDS011;42950;52.134;5.578;2023-05-19T02:42:19;17.48;;;7.78;;
23720;SDS011;42950;52.134;5.578;2023-05-19T02:44:45;14.27;;;7.18;;
23720;SDS011;42950;52.134;5.578;2023-05-19T02:47:11;13.35;;;6.85;;
23720;SDS011;42950;52.134;5.578;2023-05-19T02:49:37;17.20;;;8.43;;
23720;SDS011;42950;52.134;5.578;2023-05-19T02:52:03;13.05;;;7.45;;
23720;SDS011;42950;52.134;5.578;2023-05-19T02:54:29;13.60;;;7.43;;
23720;SDS011;42950;52.134;5.578;2023-05-19T02:56:56;16.58;;;7.18;;
23720;SDS011;42950;52.134;5.578;2023-05-19T02:59:22;17.48;;;7.30;;
23720;SDS011;42950;52.134;5.578;2023-05-19T03:01:49;13.93;;;7.40;;
23720;SDS011;42950;52.134;5.578;2023-05-19T03:04:19;15.70;;;7.15;;
23720;SDS011;42950;52.134;5.578;2023-05-19T03:06:46;19.63;;;7.63;;
23720;SDS011;42950;52.134;5.578;2023-05-19T03:09:12;16.65;;;7.85;;
23720;SDS011;42950;52.134;5.578;2023-05-19T03:11:38;13.10;;;7.60;;
23720;SDS011;42950;52.134;5.578;2023-05-19T03:14:04;16.20;;;7.72;;
23720;SDS011;42950;52.134;5.578;2023-05-19T03:16:29;14.13;;;7.35;;
23720;SDS011;42950;52.134;5.578;2023-05-19T03:18:56;13.02;;;7.63;;
23720;SDS011;42950;52.134;5.578;2023-05-19T03:21:22;16.60;;;8.63;;
23720;SDS011;42950;52.134;5.578;2023-05-19T03:23:49;12.70;;;7.60;;
23720;SDS011;42950;52.134;5.578;2023-05-19T03:26:14;15.98;;;8.55;;
23720;SDS011;42950;52.134;5.578;2023-05-19T03:28:46;19.60;;;8.40;;
23720;SDS011;42950;52.134;5.578;2023-05-19T03:31:13;13.98;;;8.23;;
23720;SDS011;42950;52.134;5.578;2023-05-19T03:33:38;15.52;;;8.63;;
23720;SDS011;42950;52.134;5.578;2023-05-19T03:36:04;12.20;;;8.00;;
23720;SDS011;42950;52.134;5.578;2023-05-19T03:38:30;14.02;;;7.95;;
23720;SDS011;42950;52.134;5.578;2023-05-19T03:40:56;22.05;;;8.50;;
23720;SDS011;42950;52.134;5.578;2023-05-19T03:43:21;12.40;;;7.63;;
23720;SDS011;42950;52.134;5.578;2023-05-19T03:45:47;17.08;;;7.95;;
23720;SDS011;42950;52.134;5.578;2023-05-19T03:48:13;15.52;;;8.80;;
23720;SDS011;42950;52.134;5.578;2023-05-19T03:50:40;15.80;;;7.80;;
23720;SDS011;42950;52.134;5.578;2023-05-19T03:53:06;15.52;;;8.07;;
23720;SDS011;42950;52.134;5.578;2023-05-19T03:55:32;16.00;;;7.90;;
23720;SDS011;42950;52.134;5.578;2023-05-19T03:57:57;15.10;;;8.10;;
23720;SDS011;42950;52.134;5.578;2023-05-19T04:00:23;13.00;;;8.32;;
23720;SDS011;42950;52.134;5.578;2023-05-19T04:02:49;12.60;;;8.05;;
23720;SDS011;42950;52.134;5.578;2023-05-19T04:05:16;15.57;;;7.50;;
23720;SDS011;42950;52.134;5.578;2023-05-19T04:07:43;16.38;;;8.25;;
23720;SDS011;42950;52.134;5.578;2023-05-19T04:10:11;17.80;;;7.75;;
23720;SDS011;42950;52.134;5.578;2023-05-19T04:12:37;17.98;;;8.57;;
23720;SDS011;42950;52.134;5.578;2023-05-19T04:15:03;15.20;;;7.90;;
23720;SDS011;42950;52.134;5.578;2023-05-19T04:17:32;15.10;;;7.63;;
23720;SDS011;42950;52.134;5.578;2023-05-19T04:19:58;18.08;;;8.70;;
23720;SDS011;42950;52.134;5.578;2023-05-19T04:22:25;12.95;;;8.27;;
23720;SDS011;42950;52.134;5.578;2023-05-19T04:24:50;14.45;;;9.00;;
23720;SDS011;42950;52.134;5.578;2023-05-19T04:27:17;20.38;;;9.07;;
23720;SDS011;42950;52.134;5.578;2023-05-19T04:29:43;16.83;;;8.27;;
23720;SDS011;42950;52.134;5.578;2023-05-19T04:32:10;14.80;;;8.30;;
23720;SDS011;42950;52.134;5.578;2023-05-19T04:34:36;13.85;;;8.85;;
23720;SDS011;42950;52.134;5.578;2023-05-19T04:37:07;17.15;;;9.25;;
23720;SDS011;42950;52.134;5.578;2023-05-19T04:39:35;15.50;;;9.00;;
23720;SDS011;42950;52.134;5.578;2023-05-19T04:42:03;19.55;;;9.52;;
23720;SDS011;42950;52.134;5.578;2023-05-19T04:44:29;14.82;;;9.20;;
23720;SDS011;42950;52.134;5.578;2023-05-19T04:46:55;19.77;;;9.10;;
23720;SDS011;42950;52.134;5.578;2023-05-19T04:49:23;16.02;;;9.00;;
23720;SDS011;42950;52.134;5.578;2023-05-19T04:51:49;15.45;;;9.70;;
23720;SDS011;42950;52.134;5.578;2023-05-19T04:54:16;18.35;;;9.02;;
23720;SDS011;42950;52.134;5.578;2023-05-19T04:56:43;16.35;;;9.48;;
23720;SDS011;42950;52.134;5.578;2023-05-19T04:59:09;15.95;;;9.38;;
23720;SDS011;42950;52.134;5.578;2023-05-19T05:01:35;15.40;;;9.95;;
23720;SDS011;42950;52.134;5.578;2023-05-19T05:04:04;16.20;;;9.82;;
23720;SDS011;42950;52.134;5.578;2023-05-19T05:06:31;18.38;;;9.68;;
23720;SDS011;42950;52.134;5.578;2023-05-19T05:08:57;15.57;;;9.88;;
23720;SDS011;42950;52.134;5.578;2023-05-19T05:11:24;15.98;;;9.77;;
23720;SDS011;42950;52.134;5.578;2023-05-19T05:13:50;17.65;;;9.57;;
23720;SDS011;42950;52.134;5.578;2023-05-19T05:16:21;16.00;;;9.95;;
23720;SDS011;42950;52.134;5.578;2023-05-19T05:18:48;15.93;;;10.13;;
23720;SDS011;42950;52.134;5.578;2023-05-19T05:21:14;11.77;;;8.95;;
23720;SDS011;42950;52.134;5.578;2023-05-19T05:23:41;14.50;;;9.27;;
23720;SDS011;42950;52.134;5.578;2023-05-19T05:26:13;13.82;;;9.35;;
23720;SDS011;42950;52.134;5.578;2023-05-19T05:28:42;16.63;;;9.48;;
23720;SDS011;42950;52.134;5.578;2023-05-19T05:31:08;18.55;;;10.85;;
23720;SDS011;42950;52.134;5.578;2023-05-19T05:33:33;19.67;;;10.57;;
23720;SDS011;42950;52.134;5.578;2023-05-19T05:35:59;18.98;;;10.30;;
23720;SDS011;42950;52.134;5.578;2023-05-19T05:38:25;18.13;;;9.70;;
23720;SDS011;42950;52.134;5.578;2023-05-19T05:40:51;15.00;;;8.77;;
23720;SDS011;42950;52.134;5.578;2023-05-19T05:43:16;18.33;;;9.65;;
23720;SDS011;42950;52.134;5.578;2023-05-19T05:45:42;16.17;;;9.63;;
23720;SDS011;42950;52.134;5.578;2023-05-19T05:48:08;17.38;;;9.70;;
23720;SDS011;42950;52.134;5.578;2023-05-19T05:50:34;18.80;;;9.70;;
23720;SDS011;42950;52.134;5.578;2023-05-19T05:53:00;19.25;;;10.13;;
23720;SDS011;42950;52.134;5.578;2023-05-19T05:55:27;19.20;;;9.13;;
23720;SDS011;42950;52.134;5.578;2023-05-19T05:57:53;15.82;;;9.05;;
23720;SDS011;42950;52.134;5.578;2023-05-19T06:00:21;14.43;;;8.85;;
23720;SDS011;42950;52.134;5.578;2023-05-19T06:02:47;12.80;;;8.95;;
23720;SDS011;42950;52.134;5.578;2023-05-19T06:05:14;16.50;;;8.45;;
23720;SDS011;42950;52.134;5.578;2023-05-19T06:07:41;16.13;;;8.52;;
23720;SDS011;42950;52.134;5.578;2023-05-19T06:10:08;13.05;;;7.72;;
23720;SDS011;42950;52.134;5.578;2023-05-19T06:12:34;12.27;;;7.40;;
23720;SDS011;42950;52.134;5.578;2023-05-19T06:15:11;16.98;;;7.97;;
23720;SDS011;42950;52.134;5.578;2023-05-19T06:17:36;11.38;;;7.10;;
23720;SDS011;42950;52.134;5.578;2023-05-19T06:20:03;12.45;;;7.13;;
23720;SDS011;42950;52.134;5.578;2023-05-19T06:22:30;12.60;;;7.72;;
23720;SDS011;42950;52.134;5.578;2023-05-19T06:24:56;12.10;;;6.80;;
23720;SDS011;42950;52.134;5.578;2023-05-19T06:27:23;11.52;;;7.30;;
23720;SDS011;42950;52.134;5.578;2023-05-19T06:29:49;15.82;;;7.85;;
23720;SDS011;42950;52.134;5.578;2023-05-19T06:32:15;15.45;;;6.95;;
23720;SDS011;42950;52.134;5.578;2023-05-19T06:34:41;12.13;;;7.03;;
23720;SDS011;42950;52.134;5.578;2023-05-19T06:37:07;9.63;;;6.78;;
23720;SDS011;42950;52.134;5.578;2023-05-19T06:39:32;12.27;;;6.13;;
23720;SDS011;42950;52.134;5.578;2023-05-19T06:41:58;12.77;;;6.47;;
23720;SDS011;42950;52.134;5.578;2023-05-19T06:44:25;8.57;;;5.55;;
23720;SDS011;42950;52.134;5.578;2023-05-19T06:46:51;12.25;;;6.18;;
23720;SDS011;42950;52.134;5.578;2023-05-19T06:49:16;11.07;;;6.07;;
23720;SDS011;42950;52.134;5.578;2023-05-19T06:51:43;9.10;;;5.15;;
23720;SDS011;42950;52.134;5.578;2023-05-19T06:54:09;11.65;;;6.03;;
23720;SDS011;42950;52.134;5.578;2023-05-19T06:56:37;10.32;;;6.22;;
23720;SDS011;42950;52.134;5.578;2023-05-19T06:59:02;13.43;;;6.32;;
23720;SDS011;42950;52.134;5.578;2023-05-19T07:01:28;7.93;;;5.13;;
23720;SDS011;42950;52.134;5.578;2023-05-19T07:03:55;13.43;;;5.07;;
23720;SDS011;42950;52.134;5.578;2023-05-19T07:06:20;10.65;;;4.72;;
23720;SDS011;42950;52.134;5.578;2023-05-19T07:08:46;10.80;;;4.50;;
23720;SDS011;42950;52.134;5.578;2023-05-19T07:11:12;10.93;;;4.38;;
23720;SDS011;42950;52.134;5.578;2023-05-19T07:13:39;8.90;;;4.13;;
23720;SDS011;42950;52.134;5.578;2023-05-19T07:16:04;9.32;;;4.25;;
23720;SDS011;42950;52.134;5.578;2023-05-19T07:18:30;9.90;;;4.13;;
23720;SDS011;42950;52.134;5.578;2023-05-19T07:20:56;8.98;;;3.70;;
23720;SDS011;42950;52.134;5.578;2023-05-19T07:23:24;10.52;;;3.58;;
23720;SDS011;42950;52.134;5.578;2023-05-19T07:25:54;8.38;;;3.67;;
23720;SDS011;42950;52.134;5.578;2023-05-19T07:28:20;8.82;;;3.03;;
23720;SDS011;42950;52.134;5.578;2023-05-19T07:30:46;7.88;;;3.60;;
23720;SDS011;42950;52.134;5.578;2023-05-19T07:33:14;7.80;;;3.17;;
23720;SDS011;42950;52.134;5.578;2023-05-19T07:35:40;7.90;;;2.95;;
23720;SDS011;42950;52.134;5.578;2023-05-19T07:38:06;10.38;;;3.30;;
23720;SDS011;42950;52.134;5.578;2023-05-19T07:40:31;7.30;;;2.90;;
23720;SDS011;42950;52.134;5.578;2023-05-19T07:42:57;8.02;;;2.90;;
23720;SDS011;42950;52.134;5.578;2023-05-19T07:45:23;8.30;;;2.28;;
23720;SDS011;42950;52.134;5.578;2023-05-19T07:47:48;7.30;;;2.60;;
23720;SDS011;42950;52.134;5.578;2023-05-19T07:50:14;11.32;;;2.88;;
23720;SDS011;42950;52.134;5.578;2023-05-19T07:52:40;8.35;;;2.70;;
23720;SDS011;42950;52.134;5.578;2023-05-19T07:55:06;4.43;;;2.03;;
23720;SDS011;42950;52.134;5.578;2023-05-19T07:57:31;7.05;;;2.38;;
23720;SDS011;42950;52.134;5.578;2023-05-19T07:59:57;6.28;;;2.53;;
23720;SDS011;42950;52.134;5.578;2023-05-19T08:02:23;7.57;;;2.03;;
23720;SDS011;42950;52.134;5.578;2023-05-19T08:04:49;4.38;;;2.08;;
23720;SDS011;42950;52.134;5.578;2023-05-19T08:07:15;8.60;;;2.38;;
23720;SDS011;42950;52.134;5.578;2023-05-19T08:09:42;8.02;;;2.20;;
23720;SDS011;42950;52.134;5.578;2023-05-19T08:12:09;5.60;;;2.20;;
23720;SDS011;42950;52.134;5.578;2023-05-19T08:14:35;8.63;;;1.85;;
23720;SDS011;42950;52.134;5.578;2023-05-19T08:17:01;7.72;;;2.25;;
23720;SDS011;42950;52.134;5.578;2023-05-19T08:19:29;5.78;;;2.05;;
23720;SDS011;42950;52.134;5.578;2023-05-19T08:21:54;6.88;;;2.33;;
23720;SDS011;42950;52.134;5.578;2023-05-19T08:24:21;5.70;;;1.80;;
23720;SDS011;42950;52.134;5.578;2023-05-19T08:26:47;7.88;;;1.80;;
23720;SDS011;42950;52.134;5.578;2023-05-19T08:29:14;11.02;;;1.70;;
23720;SDS011;42950;52.134;5.578;2023-05-19T08:31:40;5.38;;;2.00;;
23720;SDS011;42950;52.134;5.578;2023-05-19T08:34:06;7.18;;;2.20;;
23720;SDS011;42950;52.134;5.578;2023-05-19T08:36:32;6.97;;;1.90;;
23720;SDS011;42950;52.134;5.578;2023-05-19T08:38:58;5.93;;;1.83;;
23720;SDS011;42950;52.134;5.578;2023-05-19T08:41:24;7.45;;;1.88;;
23720;SDS011;42950;52.134;5.578;2023-05-19T08:43:50;5.65;;;1.75;;
23720;SDS011;42950;52.134;5.578;2023-05-19T08:46:16;5.57;;;1.80;;
23720;SDS011;42950;52.134;5.578;2023-05-19T08:48:43;6.10;;;2.10;;
23720;SDS011;42950;52.134;5.578;2023-05-19T08:51:26;7.47;;;2.00;;
23720;SDS011;42950;52.134;5.578;2023-05-19T08:54:22;8.00;;;2.00;;
23720;SDS011;42950;52.134;5.578;2023-05-19T08:56:53;6.13;;;2.17;;
23720;SDS011;42950;52.134;5.578;2023-05-19T08:59:19;8.23;;;2.47;;
23720;SDS011;42950;52.134;5.578;2023-05-19T09:01:47;5.38;;;2.13;;
23720;SDS011;42950;52.134;5.578;2023-05-19T09:04:14;4.40;;;2.10;;
23720;SDS011;42950;52.134;5.578;2023-05-19T09:06:41;7.05;;;2.08;;
23720;SDS011;42950;52.134;5.578;2023-05-19T09:09:09;9.38;;;2.03;;
23720;SDS011;42950;52.134;5.578;2023-05-19T09:11:35;8.15;;;1.83;;
23720;SDS011;42950;52.134;5.578;2023-05-19T09:14:04;7.43;;;2.20;;
23720;SDS011;42950;52.134;5.578;2023-05-19T09:16:30;6.22;;;2.05;;
23720;SDS011;42950;52.134;5.578;2023-05-19T09:18:57;6.13;;;2.22;;
23720;SDS011;42950;52.134;5.578;2023-05-19T09:21:29;8.27;;;2.17;;
23720;SDS011;42950;52.134;5.578;2023-05-19T09:23:56;5.93;;;2.20;;
23720;SDS011;42950;52.134;5.578;2023-05-19T09:26:23;6.88;;;1.83;;
23720;SDS011;42950;52.134;5.578;2023-05-19T09:28:49;7.88;;;1.70;;
23720;SDS011;42950;52.134;5.578;2023-05-19T09:31:15;6.18;;;1.85;;
23720;SDS011;42950;52.134;5.578;2023-05-19T09:33:42;8.57;;;2.40;;
23720;SDS011;42950;52.134;5.578;2023-05-19T09:36:08;6.18;;;1.92;;
23720;SDS011;42950;52.134;5.578;2023-05-19T09:38:35;4.03;;;2.00;;
23720;SDS011;42950;52.134;5.578;2023-05-19T09:41:02;6.05;;;1.98;;
23720;SDS011;42950;52.134;5.578;2023-05-19T09:43:31;7.10;;;2.30;;
23720;SDS011;42950;52.134;5.578;2023-05-19T09:45:59;6.35;;;1.98;;
23720;SDS011;42950;52.134;5.578;2023-05-19T09:48:33;4.88;;;1.83;;
23720;SDS011;42950;52.134;5.578;2023-05-19T09:51:00;8.18;;;2.15;;
23720;SDS011;42950;52.134;5.578;2023-05-19T09:53:33;6.82;;;2.15;;
23720;SDS011;42950;52.134;5.578;2023-05-19T09:56:00;8.27;;;2.00;;
23720;SDS011;42950;52.134;5.578;2023-05-19T09:58:30;4.20;;;2.00;;
23720;SDS011;42950;52.134;5.578;2023-05-19T10:00:59;5.93;;;2.45;;
23720;SDS011;42950;52.134;5.578;2023-05-19T10:03:27;5.32;;;2.10;;
23720;SDS011;42950;52.134;5.578;2023-05-19T10:05:53;6.30;;;1.95;;
23720;SDS011;42950;52.134;5.578;2023-05-19T10:08:21;11.18;;;2.30;;
23720;SDS011;42950;52.134;5.578;2023-05-19T10:10:48;7.85;;;2.00;;
23720;SDS011;42950;52.134;5.578;2023-05-19T10:13:14;6.15;;;1.65;;
23720;SDS011;42950;52.134;5.578;2023-05-19T10:15:42;8.50;;;2.00;;
23720;SDS011;42950;52.134;5.578;2023-05-19T10:18:09;5.25;;;1.80;;
23720;SDS011;42950;52.134;5.578;2023-05-19T10:20:36;6.75;;;2.13;;
23720;SDS011;42950;52.134;5.578;2023-05-19T10:23:03;6.60;;;2.13;;
23720;SDS011;42950;52.134;5.578;2023-05-19T10:25:30;4.95;;;1.95;;
23720;SDS011;42950;52.134;5.578;2023-05-19T10:28:01;7.60;;;1.67;;
23720;SDS011;42950;52.134;5.578;2023-05-19T10:30:37;6.93;;;2.20;;
23720;SDS011;42950;52.134;5.578;2023-05-19T10:33:10;5.57;;;2.05;;
23720;SDS011;42950;52.134;5.578;2023-05-19T10:38:40;8.20;;;2.00;;
23720;SDS011;42950;52.134;5.578;2023-05-19T10:46:59;7.53;;;2.00;;
23720;SDS011;42950;52.134;5.578;2023-05-19T10:49:25;6.35;;;1.55;;
23720;SDS011;42950;52.134;5.578;2023-05-19T10:51:51;4.70;;;1.92;;
23720;SDS011;42950;52.134;5.578;2023-05-19T10:54:38;7.35;;;2.08;;
23720;SDS011;42950;52.134;5.578;2023-05-19T10:57:07;5.53;;;2.08;;
23720;SDS011;42950;52.134;5.578;2023-05-19T10:59:38;5.22;;;1.77;;
23720;SDS011;42950;52.134;5.578;2023-05-19T11:02:07;8.15;;;2.10;;
23720;SDS011;42950;52.134;5.578;2023-05-19T11:07:14;7.28;;;2.10;;
23720;SDS011;42950;52.134;5.578;2023-05-19T11:09:43;4.90;;;2.05;;
23720;SDS011;42950;52.134;5.578;2023-05-19T11:12:19;7.18;;;2.30;;
23720;SDS011;42950;52.134;5.578;2023-05-19T11:14:47;5.13;;;1.98;;
23720;SDS011;42950;52.134;5.578;2023-05-19T11:17:17;6.50;;;2.38;;
23720;SDS011;42950;52.134;5.578;2023-05-19T11:19:52;5.50;;;1.88;;
23720;SDS011;42950;52.134;5.578;2023-05-19T11:22:24;4.03;;;1.85;;
23720;SDS011;42950;52.134;5.578;2023-05-19T11:24:52;3.95;;;1.75;;
23720;SDS011;42950;52.134;5.578;2023-05-19T11:27:25;5.05;;;1.77;;
23720;SDS011;42950;52.134;5.578;2023-05-19T11:29:56;6.47;;;2.15;;
23720;SDS011;42950;52.134;5.578;2023-05-19T11:32:30;6.20;;;1.80;;
23720;SDS011;42950;52.134;5.578;2023-05-19T11:34:58;4.57;;;1.90;;
23720;SDS011;42950;52.134;5.578;2023-05-19T11:37:25;6.88;;;2.42;;
23720;SDS011;42950;52.134;5.578;2023-05-19T11:39:53;6.95;;;2.30;;
23720;SDS011;42950;52.134;5.578;2023-05-19T11:42:18;4.93;;;1.55;;
23720;SDS011;42950;52.134;5.578;2023-05-19T11:44:44;6.78;;;1.77;;
23720;SDS011;42950;52.134;5.578;2023-05-19T11:47:11;4.78;;;2.15;;
23720;SDS011;42950;52.134;5.578;2023-05-19T11:49:37;5.60;;;2.00;;
23720;SDS011;42950;52.134;5.578;2023-05-19T11:52:06;4.28;;;1.90;;
23720;SDS011;42950;52.134;5.578;2023-05-19T11:54:33;5.47;;;1.98;;
23720;SDS011;42950;52.134;5.578;2023-05-19T11:57:02;7.15;;;2.13;;
23720;SDS011;42950;52.134;5.578;2023-05-19T11:59:32;5.78;;;1.90;;
23720;SDS011;42950;52.134;5.578;2023-05-19T12:02:00;5.28;;;2.00;;
23720;SDS011;42950;52.134;5.578;2023-05-19T12:04:30;6.43;;;1.85;;
23720;SDS011;42950;52.134;5.578;2023-05-19T12:06:56;7.72;;;2.10;;
23720;SDS011;42950;52.134;5.578;2023-05-19T12:09:22;4.70;;;2.10;;
23720;SDS011;42950;52.134;5.578;2023-05-19T12:11:50;3.97;;;2.00;;
23720;SDS011;42950;52.134;5.578;2023-05-19T12:14:17;4.03;;;1.80;;
23720;SDS011;42950;52.134;5.578;2023-05-19T12:16:43;5.90;;;1.90;;
23720;SDS011;42950;52.134;5.578;2023-05-19T12:19:09;5.95;;;2.00;;
23720;SDS011;42950;52.134;5.578;2023-05-19T12:21:35;10.82;;;2.25;;
23720;SDS011;42950;52.134;5.578;2023-05-19T12:24:01;5.32;;;2.03;;
23720;SDS011;42950;52.134;5.578;2023-05-19T12:26:30;7.05;;;1.95;;
23720;SDS011;42950;52.134;5.578;2023-05-19T12:28:56;5.43;;;1.90;;
23720;SDS011;42950;52.134;5.578;2023-05-19T12:31:22;5.40;;;2.13;;
23720;SDS011;42950;52.134;5.578;2023-05-19T12:33:48;5.60;;;1.52;;
23720;SDS011;42950;52.134;5.578;2023-05-19T12:36:16;6.47;;;1.88;;
23720;SDS011;42950;52.134;5.578;2023-05-19T12:38:42;5.95;;;2.30;;
23720;SDS011;42950;52.134;5.578;2023-05-19T12:41:12;6.25;;;1.85;;
23720;SDS011;42950;52.134;5.578;2023-05-19T12:43:39;6.70;;;2.13;;
23720;SDS011;42950;52.134;5.578;2023-05-19T12:46:09;5.15;;;1.88;;
23720;SDS011;42950;52.134;5.578;2023-05-19T12:48:46;6.10;;;2.00;;
23720;SDS011;42950;52.134;5.578;2023-05-19T12:51:15;4.97;;;1.88;;
23720;SDS011;42950;52.134;5.578;2023-05-19T12:53:42;7.28;;;2.13;;
23720;SDS011;42950;52.134;5.578;2023-05-19T12:56:11;7.07;;;1.90;;
23720;SDS011;42950;52.134;5.578;2023-05-19T12:58:41;7.55;;;2.20;;
23720;SDS011;42950;52.134;5.578;2023-05-19T13:01:14;6.50;;;2.00;;
23720;SDS011;42950;52.134;5.578;2023-05-19T13:03:41;4.95;;;1.73;;
23720;SDS011;42950;52.134;5.578;2023-05-19T13:06:08;4.93;;;1.63;;
23720;SDS011;42950;52.134;5.578;2023-05-19T13:08:35;6.95;;;1.83;;
23720;SDS011;42950;52.134;5.578;2023-05-19T13:11:03;3.70;;;1.52;;
23720;SDS011;42950;52.134;5.578;2023-05-19T13:13:30;5.85;;;2.08;;
23720;SDS011;42950;52.134;5.578;2023-05-19T13:15:56;6.78;;;1.80;;
23720;SDS011;42950;52.134;5.578;2023-05-19T13:18:22;6.70;;;1.92;;
23720;SDS011;42950;52.134;5.578;2023-05-19T13:20:48;6.00;;;2.00;;
23720;SDS011;42950;52.134;5.578;2023-05-19T13:23:15;5.85;;;1.88;;
23720;SDS011;42950;52.134;5.578;2023-05-19T13:25:41;6.28;;;1.88;;
23720;SDS011;42950;52.134;5.578;2023-05-19T13:28:07;4.50;;;1.52;;
23720;SDS011;42950;52.134;5.578;2023-05-19T13:30:34;4.18;;;1.42;;
23720;SDS011;42950;52.134;5.578;2023-05-19T13:33:02;7.45;;;1.80;;
23720;SDS011;42950;52.134;5.578;2023-05-19T13:35:30;6.57;;;1.98;;
23720;SDS011;42950;52.134;5.578;2023-05-19T13:38:02;5.35;;;1.75;;
23720;SDS011;42950;52.134;5.578;2023-05-19T13:40:29;5.55;;;1.58;;
23720;SDS011;42950;52.134;5.578;2023-05-19T13:42:57;6.93;;;2.10;;
23720;SDS011;42950;52.134;5.578;2023-05-19T13:45:23;11.05;;;2.08;;
23720;SDS011;42950;52.134;5.578;2023-05-19T13:47:48;7.05;;;1.80;;
23720;SDS011;42950;52.134;5.578;2023-05-19T13:50:14;6.07;;;2.03;;
23720;SDS011;42950;52.134;5.578;2023-05-19T13:52:40;6.45;;;1.90;;
23720;SDS011;42950;52.134;5.578;2023-05-19T13:55:06;7.25;;;1.92;;
23720;SDS011;42950;52.134;5.578;2023-05-19T13:57:32;5.20;;;2.10;;
23720;SDS011;42950;52.134;5.578;2023-05-19T13:59:58;5.63;;;1.70;;
23720;SDS011;42950;52.134;5.578;2023-05-19T14:02:24;3.95;;;1.60;;
23720;SDS011;42950;52.134;5.578;2023-05-19T14:04:51;4.47;;;1.48;;
23720;SDS011;42950;52.134;5.578;2023-05-19T14:07:18;5.28;;;1.75;;
23720;SDS011;42950;52.134;5.578;2023-05-19T14:09:44;7.43;;;2.03;;
23720;SDS011;42950;52.134;5.578;2023-05-19T14:12:10;6.03;;;1.80;;
23720;SDS011;42950;52.134;5.578;2023-05-19T14:14:36;5.22;;;1.73;;
23720;SDS011;42950;52.134;5.578;2023-05-19T14:17:02;7.32;;;2.10;;
23720;SDS011;42950;52.134;5.578;2023-05-19T14:19:28;6.05;;;2.35;;
23720;SDS011;42950;52.134;5.578;2023-05-19T14:21:55;6.03;;;1.88;;
23720;SDS011;42950;52.134;5.578;2023-05-19T14:24:22;5.50;;;1.65;;
23720;SDS011;42950;52.134;5.578;2023-05-19T14:26:48;7.18;;;2.05;;
23720;SDS011;42950;52.134;5.578;2023-05-19T14:29:14;5.43;;;1.77;;
23720;SDS011;42950;52.134;5.578;2023-05-19T14:31:40;6.93;;;2.00;;
23720;SDS011;42950;52.134;5.578;2023-05-19T14:34:08;4.07;;;1.70;;
23720;SDS011;42950;52.134;5.578;2023-05-19T14:36:34;4.45;;;1.60;;
23720;SDS011;42950;52.134;5.578;2023-05-19T14:39:00;4.93;;;1.90;;
23720;SDS011;42950;52.134;5.578;2023-05-19T14:41:26;5.22;;;1.88;;
23720;SDS011;42950;52.134;5.578;2023-05-19T14:43:51;3.90;;;1.73;;
23720;SDS011;42950;52.134;5.578;2023-05-19T14:46:17;5.70;;;1.98;;
23720;SDS011;42950;52.134;5.578;2023-05-19T14:48:43;7.25;;;1.70;;
23720;SDS011;42950;52.134;5.578;2023-05-19T14:51:08;4.03;;;1.70;;
23720;SDS011;42950;52.134;5.578;2023-05-19T14:53:34;5.47;;;1.75;;
23720;SDS011;42950;52.134;5.578;2023-05-19T14:56:00;5.88;;;1.60;;
23720;SDS011;42950;52.134;5.578;2023-05-19T14:58:25;5.82;;;1.67;;
23720;SDS011;42950;52.134;5.578;2023-05-19T15:00:51;4.03;;;1.70;;
23720;SDS011;42950;52.134;5.578;2023-05-19T15:03:17;6.90;;;2.00;;
23720;SDS011;42950;52.134;5.578;2023-05-19T15:05:43;6.82;;;1.88;;
23720;SDS011;42950;52.134;5.578;2023-05-19T15:08:09;6.60;;;1.90;;
23720;SDS011;42950;52.134;5.578;2023-05-19T15:10:37;6.03;;;2.10;;
23720;SDS011;42950;52.134;5.578;2023-05-19T15:13:04;6.63;;;1.90;;
23720;SDS011;42950;52.134;5.578;2023-05-19T15:15:29;6.40;;;1.92;;